Terminal Aerodrome Forecast
Issued by NWS Bismarck, ND

Current Version | Previous Version | Text Only | Print | Product List | Glossary On
Versions: 1 2 3 4 5 6 7 8 9 10 11 12 13 14 15 16
000
FTUS43 KBIS 291128
TAFISN
TAF
KISN 291128Z 2912/3012 31006KT P6SM BKN150
     FM291800 31008KT P6SM VCTS SCT100CB
     FM292100 35014KT P6SM VCTS BKN090CB
     FM300300 34009KT P6SM BKN120=

USA.gov is the U.S. government's official web portal to all federal, state and local government web resources and services.